sensor_id;sensor_type;location;lat;lon;timestamp;P1;durP1;ratioP1;P2;durP2;ratioP2
57023;SDS011;42916;54.346;18.562;2024-01-06T00:01:13;122.00;;;48.90;;
57023;SDS011;42916;54.346;18.562;2024-01-06T00:03:42;112.10;;;48.30;;
57023;SDS011;42916;54.346;18.562;2024-01-06T00:06:13;107.00;;;45.60;;
57023;SDS011;42916;54.346;18.562;2024-01-06T00:08:40;110.70;;;47.60;;
57023;SDS011;42916;54.346;18.562;2024-01-06T00:11:20;118.70;;;49.80;;
57023;SDS011;42916;54.346;18.562;2024-01-06T00:13:47;116.40;;;47.40;;
57023;SDS011;42916;54.346;18.562;2024-01-06T00:16:16;133.60;;;50.50;;
57023;SDS011;42916;54.346;18.562;2024-01-06T00:18:45;116.70;;;47.80;;
57023;SDS011;42916;54.346;18.562;2024-01-06T00:21:12;132.00;;;51.90;;
57023;SDS011;42916;54.346;18.562;2024-01-06T00:23:40;130.10;;;51.70;;
57023;SDS011;42916;54.346;18.562;2024-01-06T00:26:07;123.90;;;51.00;;
57023;SDS011;42916;54.346;18.562;2024-01-06T00:28:35;118.90;;;52.10;;
57023;SDS011;42916;54.346;18.562;2024-01-06T00:31:02;123.30;;;51.60;;
57023;SDS011;42916;54.346;18.562;2024-01-06T00:33:29;121.40;;;50.80;;
57023;SDS011;42916;54.346;18.562;2024-01-06T00:35:56;131.00;;;52.30;;
57023;SDS011;42916;54.346;18.562;2024-01-06T00:38:22;129.10;;;53.60;;
57023;SDS011;42916;54.346;18.562;2024-01-06T00:40:49;126.10;;;51.80;;
57023;SDS011;42916;54.346;18.562;2024-01-06T00:43:17;125.40;;;51.20;;
57023;SDS011;42916;54.346;18.562;2024-01-06T00:45:43;115.70;;;47.20;;
57023;SDS011;42916;54.346;18.562;2024-01-06T00:48:10;119.80;;;49.10;;
57023;SDS011;42916;54.346;18.562;2024-01-06T00:50:37;116.20;;;46.70;;
57023;SDS011;42916;54.346;18.562;2024-01-06T00:53:06;111.30;;;49.50;;
57023;SDS011;42916;54.346;18.562;2024-01-06T00:55:34;131.40;;;53.40;;
57023;SDS011;42916;54.346;18.562;2024-01-06T00:58:00;136.40;;;56.70;;
57023;SDS011;42916;54.346;18.562;2024-01-06T01:00:27;133.20;;;54.60;;
57023;SDS011;42916;54.346;18.562;2024-01-06T01:02:54;131.40;;;54.40;;
57023;SDS011;42916;54.346;18.562;2024-01-06T01:05:21;131.10;;;52.60;;
57023;SDS011;42916;54.346;18.562;2024-01-06T01:07:50;119.00;;;50.60;;
57023;SDS011;42916;54.346;18.562;2024-01-06T01:10:18;121.20;;;50.60;;
57023;SDS011;42916;54.346;18.562;2024-01-06T01:12:45;126.20;;;54.40;;
57023;SDS011;42916;54.346;18.562;2024-01-06T01:15:11;120.10;;;50.20;;
57023;SDS011;42916;54.346;18.562;2024-01-06T01:17:38;120.70;;;52.40;;
57023;SDS011;42916;54.346;18.562;2024-01-06T01:20:05;122.20;;;52.30;;
57023;SDS011;42916;54.346;18.562;2024-01-06T01:22:32;125.80;;;53.70;;
57023;SDS011;42916;54.346;18.562;2024-01-06T01:24:59;123.10;;;51.80;;
57023;SDS011;42916;54.346;18.562;2024-01-06T01:27:31;113.40;;;47.80;;
57023;SDS011;42916;54.346;18.562;2024-01-06T01:29:58;123.00;;;45.90;;
57023;SDS011;42916;54.346;18.562;2024-01-06T01:32:25;107.30;;;43.10;;
57023;SDS011;42916;54.346;18.562;2024-01-06T01:34:51;99.10;;;39.90;;
57023;SDS011;42916;54.346;18.562;2024-01-06T01:37:18;115.80;;;47.30;;
57023;SDS011;42916;54.346;18.562;2024-01-06T01:39:45;122.00;;;48.40;;
57023;SDS011;42916;54.346;18.562;2024-01-06T01:42:11;105.20;;;47.20;;
57023;SDS011;42916;54.346;18.562;2024-01-06T01:44:38;115.40;;;47.80;;
57023;SDS011;42916;54.346;18.562;2024-01-06T01:47:05;102.60;;;45.90;;
57023;SDS011;42916;54.346;18.562;2024-01-06T01:49:32;101.00;;;42.20;;
57023;SDS011;42916;54.346;18.562;2024-01-06T01:51:59;89.40;;;39.40;;
57023;SDS011;42916;54.346;18.562;2024-01-06T01:54:26;80.80;;;36.70;;
57023;SDS011;42916;54.346;18.562;2024-01-06T01:56:53;88.40;;;37.20;;
57023;SDS011;42916;54.346;18.562;2024-01-06T01:59:20;92.80;;;39.30;;
57023;SDS011;42916;54.346;18.562;2024-01-06T02:01:47;93.00;;;39.10;;
57023;SDS011;42916;54.346;18.562;2024-01-06T02:04:14;88.90;;;39.70;;
57023;SDS011;42916;54.346;18.562;2024-01-06T02:06:40;95.70;;;38.30;;
57023;SDS011;42916;54.346;18.562;2024-01-06T02:09:10;92.20;;;38.80;;
57023;SDS011;42916;54.346;18.562;2024-01-06T02:11:37;88.10;;;39.20;;
57023;SDS011;42916;54.346;18.562;2024-01-06T02:14:04;96.50;;;38.30;;
57023;SDS011;42916;54.346;18.562;2024-01-06T02:16:31;76.70;;;35.80;;
57023;SDS011;42916;54.346;18.562;2024-01-06T02:18:58;72.60;;;31.30;;
57023;SDS011;42916;54.346;18.562;2024-01-06T02:21:24;72.80;;;33.10;;
57023;SDS011;42916;54.346;18.562;2024-01-06T02:23:54;77.00;;;32.60;;
57023;SDS011;42916;54.346;18.562;2024-01-06T02:26:20;63.00;;;28.40;;
57023;SDS011;42916;54.346;18.562;2024-01-06T02:28:48;62.30;;;27.70;;
57023;SDS011;42916;54.346;18.562;2024-01-06T02:31:15;63.50;;;27.70;;
57023;SDS011;42916;54.346;18.562;2024-01-06T02:33:42;60.70;;;27.20;;
57023;SDS011;42916;54.346;18.562;2024-01-06T02:36:09;60.40;;;25.00;;
57023;SDS011;42916;54.346;18.562;2024-01-06T02:38:35;49.60;;;22.10;;
57023;SDS011;42916;54.346;18.562;2024-01-06T02:41:02;31.80;;;14.80;;
57023;SDS011;42916;54.346;18.562;2024-01-06T02:43:29;32.90;;;14.60;;
57023;SDS011;42916;54.346;18.562;2024-01-06T02:45:55;33.50;;;14.80;;
57023;SDS011;42916;54.346;18.562;2024-01-06T02:48:22;26.70;;;11.70;;
57023;SDS011;42916;54.346;18.562;2024-01-06T02:50:49;20.70;;;9.90;;
57023;SDS011;42916;54.346;18.562;2024-01-06T02:53:16;22.50;;;10.00;;
57023;SDS011;42916;54.346;18.562;2024-01-06T02:55:42;29.20;;;12.70;;
57023;SDS011;42916;54.346;18.562;2024-01-06T02:58:09;29.60;;;12.70;;
57023;SDS011;42916;54.346;18.562;2024-01-06T03:00:36;31.00;;;13.00;;
57023;SDS011;42916;54.346;18.562;2024-01-06T03:03:03;25.60;;;12.00;;
57023;SDS011;42916;54.346;18.562;2024-01-06T03:05:30;27.80;;;13.10;;
57023;SDS011;42916;54.346;18.562;2024-01-06T03:07:57;15.20;;;8.90;;
57023;SDS011;42916;54.346;18.562;2024-01-06T03:10:23;18.60;;;9.20;;
57023;SDS011;42916;54.346;18.562;2024-01-06T03:12:51;13.50;;;6.20;;
57023;SDS011;42916;54.346;18.562;2024-01-06T03:15:17;5.10;;;2.90;;
57023;SDS011;42916;54.346;18.562;2024-01-06T03:17:44;6.00;;;2.70;;
57023;SDS011;42916;54.346;18.562;2024-01-06T03:20:11;2.60;;;1.80;;
57023;SDS011;42916;54.346;18.562;2024-01-06T03:22:38;4.50;;;2.20;;
57023;SDS011;42916;54.346;18.562;2024-01-06T03:25:05;3.80;;;1.70;;
57023;SDS011;42916;54.346;18.562;2024-01-06T03:27:32;4.40;;;1.50;;
57023;SDS011;42916;54.346;18.562;2024-01-06T03:29:59;1.60;;;1.00;;
57023;SDS011;42916;54.346;18.562;2024-01-06T03:32:26;3.20;;;1.50;;
57023;SDS011;42916;54.346;18.562;2024-01-06T03:34:54;3.60;;;1.60;;
57023;SDS011;42916;54.346;18.562;2024-01-06T03:37:21;4.30;;;1.80;;
57023;SDS011;42916;54.346;18.562;2024-01-06T03:39:51;3.20;;;1.70;;
57023;SDS011;42916;54.346;18.562;2024-01-06T03:42:18;3.00;;;1.70;;
57023;SDS011;42916;54.346;18.562;2024-01-06T03:44:44;3.00;;;1.80;;
57023;SDS011;42916;54.346;18.562;2024-01-06T03:47:11;3.70;;;1.90;;
57023;SDS011;42916;54.346;18.562;2024-01-06T03:49:38;5.80;;;2.30;;
57023;SDS011;42916;54.346;18.562;2024-01-06T03:52:05;3.70;;;2.20;;
57023;SDS011;42916;54.346;18.562;2024-01-06T03:54:31;4.20;;;1.90;;
57023;SDS011;42916;54.346;18.562;2024-01-06T03:56:58;5.40;;;2.40;;
57023;SDS011;42916;54.346;18.562;2024-01-06T03:59:25;3.20;;;1.80;;
57023;SDS011;42916;54.346;18.562;2024-01-06T04:01:51;2.20;;;1.80;;
57023;SDS011;42916;54.346;18.562;2024-01-06T04:04:19;2.80;;;1.80;;
57023;SDS011;42916;54.346;18.562;2024-01-06T04:06:46;3.70;;;2.30;;
57023;SDS011;42916;54.346;18.562;2024-01-06T04:09:13;3.30;;;2.10;;
57023;SDS011;42916;54.346;18.562;2024-01-06T04:11:42;1.60;;;1.20;;
57023;SDS011;42916;54.346;18.562;2024-01-06T04:14:09;3.20;;;1.40;;
57023;SDS011;42916;54.346;18.562;2024-01-06T04:16:38;4.70;;;1.40;;
57023;SDS011;42916;54.346;18.562;2024-01-06T04:19:04;2.70;;;1.40;;
57023;SDS011;42916;54.346;18.562;2024-01-06T04:21:33;1.90;;;1.50;;
57023;SDS011;42916;54.346;18.562;2024-01-06T04:24:00;3.50;;;1.70;;
57023;SDS011;42916;54.346;18.562;2024-01-06T04:26:27;1.40;;;1.30;;
57023;SDS011;42916;54.346;18.562;2024-01-06T04:28:54;1.80;;;1.20;;
57023;SDS011;42916;54.346;18.562;2024-01-06T04:31:20;2.30;;;1.30;;
57023;SDS011;42916;54.346;18.562;2024-01-06T04:33:49;1.30;;;0.90;;
57023;SDS011;42916;54.346;18.562;2024-01-06T04:36:16;1.50;;;1.00;;
57023;SDS011;42916;54.346;18.562;2024-01-06T04:38:43;3.10;;;1.20;;
57023;SDS011;42916;54.346;18.562;2024-01-06T04:41:09;1.60;;;1.00;;
57023;SDS011;42916;54.346;18.562;2024-01-06T04:43:37;2.30;;;1.10;;
57023;SDS011;42916;54.346;18.562;2024-01-06T04:46:03;1.30;;;0.80;;
57023;SDS011;42916;54.346;18.562;2024-01-06T04:48:30;2.20;;;1.20;;
57023;SDS011;42916;54.346;18.562;2024-01-06T04:50:57;1.50;;;1.20;;
57023;SDS011;42916;54.346;18.562;2024-01-06T04:53:24;1.70;;;1.20;;
57023;SDS011;42916;54.346;18.562;2024-01-06T04:55:50;3.60;;;1.20;;
57023;SDS011;42916;54.346;18.562;2024-01-06T04:58:17;2.60;;;1.10;;
57023;SDS011;42916;54.346;18.562;2024-01-06T05:00:47;1.80;;;0.90;;
57023;SDS011;42916;54.346;18.562;2024-01-06T05:05:43;1.50;;;1.30;;
57023;SDS011;42916;54.346;18.562;2024-01-06T05:08:10;2.40;;;1.50;;
57023;SDS011;42916;54.346;18.562;2024-01-06T05:10:37;2.60;;;1.30;;
57023;SDS011;42916;54.346;18.562;2024-01-06T05:13:03;3.80;;;1.30;;
57023;SDS011;42916;54.346;18.562;2024-01-06T05:15:33;2.30;;;1.20;;
57023;SDS011;42916;54.346;18.562;2024-01-06T05:18:00;2.20;;;1.20;;
57023;SDS011;42916;54.346;18.562;2024-01-06T05:20:28;2.20;;;1.00;;
57023;SDS011;42916;54.346;18.562;2024-01-06T05:22:54;1.00;;;0.90;;
57023;SDS011;42916;54.346;18.562;2024-01-06T05:25:21;3.90;;;1.20;;
57023;SDS011;42916;54.346;18.562;2024-01-06T05:27:48;1.00;;;0.80;;
57023;SDS011;42916;54.346;18.562;2024-01-06T05:30:15;1.30;;;1.00;;
57023;SDS011;42916;54.346;18.562;2024-01-06T05:32:42;3.30;;;1.10;;
57023;SDS011;42916;54.346;18.562;2024-01-06T05:35:08;2.20;;;1.10;;
57023;SDS011;42916;54.346;18.562;2024-01-06T05:37:37;1.80;;;1.20;;
57023;SDS011;42916;54.346;18.562;2024-01-06T05:40:03;1.00;;;0.80;;
57023;SDS011;42916;54.346;18.562;2024-01-06T05:42:31;1.60;;;1.00;;
57023;SDS011;42916;54.346;18.562;2024-01-06T05:44:59;1.90;;;1.10;;
57023;SDS011;42916;54.346;18.562;2024-01-06T05:47:26;1.60;;;1.00;;
57023;SDS011;42916;54.346;18.562;2024-01-06T05:49:53;0.70;;;0.70;;
57023;SDS011;42916;54.346;18.562;2024-01-06T05:52:19;1.20;;;1.00;;
57023;SDS011;42916;54.346;18.562;2024-01-06T05:54:46;2.00;;;1.20;;
57023;SDS011;42916;54.346;18.562;2024-01-06T05:57:13;1.30;;;0.90;;
57023;SDS011;42916;54.346;18.562;2024-01-06T05:59:40;1.20;;;0.90;;
57023;SDS011;42916;54.346;18.562;2024-01-06T06:02:07;1.40;;;0.90;;
57023;SDS011;42916;54.346;18.562;2024-01-06T06:04:33;2.40;;;1.20;;
57023;SDS011;42916;54.346;18.562;2024-01-06T06:07:00;1.40;;;1.00;;
57023;SDS011;42916;54.346;18.562;2024-01-06T06:09:27;2.10;;;1.10;;
57023;SDS011;42916;54.346;18.562;2024-01-06T06:11:55;3.60;;;1.50;;
57023;SDS011;42916;54.346;18.562;2024-01-06T06:14:21;4.10;;;1.30;;
57023;SDS011;42916;54.346;18.562;2024-01-06T06:16:48;1.40;;;1.00;;
57023;SDS011;42916;54.346;18.562;2024-01-06T06:19:15;2.40;;;1.10;;
57023;SDS011;42916;54.346;18.562;2024-01-06T06:21:41;1.70;;;1.00;;
57023;SDS011;42916;54.346;18.562;2024-01-06T06:24:08;3.00;;;1.20;;
57023;SDS011;42916;54.346;18.562;2024-01-06T06:26:35;3.80;;;1.30;;
57023;SDS011;42916;54.346;18.562;2024-01-06T06:29:03;3.00;;;1.30;;
57023;SDS011;42916;54.346;18.562;2024-01-06T06:31:29;1.30;;;1.20;;
57023;SDS011;42916;54.346;18.562;2024-01-06T06:33:56;2.30;;;1.20;;
57023;SDS011;42916;54.346;18.562;2024-01-06T06:36:24;1.30;;;1.10;;
57023;SDS011;42916;54.346;18.562;2024-01-06T06:38:53;3.10;;;1.00;;
57023;SDS011;42916;54.346;18.562;2024-01-06T06:41:24;1.50;;;1.10;;
57023;SDS011;42916;54.346;18.562;2024-01-06T06:43:51;2.90;;;1.00;;
57023;SDS011;42916;54.346;18.562;2024-01-06T06:46:17;1.40;;;1.10;;
57023;SDS011;42916;54.346;18.562;2024-01-06T06:48:45;2.00;;;1.00;;
57023;SDS011;42916;54.346;18.562;2024-01-06T06:51:12;1.50;;;0.90;;
57023;SDS011;42916;54.346;18.562;2024-01-06T06:53:38;2.00;;;1.20;;
57023;SDS011;42916;54.346;18.562;2024-01-06T06:56:05;2.10;;;1.10;;
57023;SDS011;42916;54.346;18.562;2024-01-06T06:58:33;1.20;;;1.10;;
57023;SDS011;42916;54.346;18.562;2024-01-06T07:00:59;1.30;;;0.90;;
57023;SDS011;42916;54.346;18.562;2024-01-06T07:03:27;3.20;;;1.20;;
57023;SDS011;42916;54.346;18.562;2024-01-06T07:05:54;2.50;;;1.20;;
57023;SDS011;42916;54.346;18.562;2024-01-06T07:08:20;4.50;;;1.60;;
57023;SDS011;42916;54.346;18.562;2024-01-06T07:10:47;2.80;;;1.40;;
57023;SDS011;42916;54.346;18.562;2024-01-06T07:13:14;1.70;;;1.40;;
57023;SDS011;42916;54.346;18.562;2024-01-06T07:15:40;2.80;;;1.60;;
57023;SDS011;42916;54.346;18.562;2024-01-06T07:18:07;1.80;;;1.30;;
57023;SDS011;42916;54.346;18.562;2024-01-06T07:20:34;2.60;;;1.40;;
57023;SDS011;42916;54.346;18.562;2024-01-06T07:23:01;2.90;;;1.60;;
57023;SDS011;42916;54.346;18.562;2024-01-06T07:25:29;1.50;;;1.30;;
57023;SDS011;42916;54.346;18.562;2024-01-06T07:27:57;4.00;;;1.80;;
57023;SDS011;42916;54.346;18.562;2024-01-06T07:30:24;2.40;;;1.40;;
57023;SDS011;42916;54.346;18.562;2024-01-06T07:32:50;3.50;;;1.30;;
57023;SDS011;42916;54.346;18.562;2024-01-06T07:35:18;2.40;;;1.40;;
57023;SDS011;42916;54.346;18.562;2024-01-06T07:37:45;1.50;;;1.20;;
57023;SDS011;42916;54.346;18.562;2024-01-06T07:40:11;3.30;;;1.40;;
57023;SDS011;42916;54.346;18.562;2024-01-06T07:42:43;1.20;;;1.10;;
57023;SDS011;42916;54.346;18.562;2024-01-06T07:45:10;2.80;;;1.50;;
57023;SDS011;42916;54.346;18.562;2024-01-06T07:47:37;2.20;;;1.50;;
57023;SDS011;42916;54.346;18.562;2024-01-06T07:50:07;2.00;;;1.30;;
57023;SDS011;42916;54.346;18.562;2024-01-06T07:52:35;2.40;;;1.40;;
57023;SDS011;42916;54.346;18.562;2024-01-06T07:55:03;2.10;;;1.40;;
57023;SDS011;42916;54.346;18.562;2024-01-06T07:57:30;1.50;;;1.40;;
57023;SDS011;42916;54.346;18.562;2024-01-06T07:59:57;1.90;;;1.50;;
57023;SDS011;42916;54.346;18.562;2024-01-06T08:02:23;3.00;;;1.80;;
57023;SDS011;42916;54.346;18.562;2024-01-06T08:04:50;3.80;;;1.20;;
57023;SDS011;42916;54.346;18.562;2024-01-06T08:07:16;2.80;;;1.40;;
57023;SDS011;42916;54.346;18.562;2024-01-06T08:09:43;3.00;;;1.70;;
57023;SDS011;42916;54.346;18.562;2024-01-06T08:12:10;4.80;;;2.00;;
57023;SDS011;42916;54.346;18.562;2024-01-06T08:14:37;4.80;;;2.10;;
57023;SDS011;42916;54.346;18.562;2024-01-06T08:17:03;5.40;;;2.10;;
57023;SDS011;42916;54.346;18.562;2024-01-06T08:19:30;4.70;;;2.00;;
57023;SDS011;42916;54.346;18.562;2024-01-06T08:21:58;4.50;;;2.10;;
57023;SDS011;42916;54.346;18.562;2024-01-06T08:24:25;3.80;;;1.70;;
57023;SDS011;42916;54.346;18.562;2024-01-06T08:26:53;2.60;;;1.70;;
57023;SDS011;42916;54.346;18.562;2024-01-06T08:29:19;4.10;;;2.00;;
57023;SDS011;42916;54.346;18.562;2024-01-06T08:31:47;3.70;;;2.20;;
57023;SDS011;42916;54.346;18.562;2024-01-06T08:34:13;2.60;;;1.50;;
57023;SDS011;42916;54.346;18.562;2024-01-06T08:36:41;2.00;;;1.30;;
57023;SDS011;42916;54.346;18.562;2024-01-06T08:39:07;2.90;;;2.10;;
57023;SDS011;42916;54.346;18.562;2024-01-06T08:41:35;2.90;;;1.60;;
57023;SDS011;42916;54.346;18.562;2024-01-06T08:44:04;3.50;;;1.90;;
57023;SDS011;42916;54.346;18.562;2024-01-06T08:46:31;4.50;;;2.00;;
57023;SDS011;42916;54.346;18.562;2024-01-06T08:48:57;7.10;;;2.30;;
57023;SDS011;42916;54.346;18.562;2024-01-06T08:51:24;4.70;;;1.80;;
57023;SDS011;42916;54.346;18.562;2024-01-06T08:53:52;4.50;;;2.20;;
57023;SDS011;42916;54.346;18.562;2024-01-06T08:56:20;5.50;;;2.50;;
57023;SDS011;42916;54.346;18.562;2024-01-06T08:58:47;3.70;;;2.10;;
57023;SDS011;42916;54.346;18.562;2024-01-06T09:01:13;3.30;;;1.80;;
57023;SDS011;42916;54.346;18.562;2024-01-06T09:03:40;5.30;;;2.10;;
57023;SDS011;42916;54.346;18.562;2024-01-06T09:06:07;4.30;;;1.60;;
57023;SDS011;42916;54.346;18.562;2024-01-06T09:08:34;2.70;;;1.60;;
57023;SDS011;42916;54.346;18.562;2024-01-06T09:11:00;4.10;;;2.00;;
57023;SDS011;42916;54.346;18.562;2024-01-06T09:13:27;4.20;;;2.30;;
57023;SDS011;42916;54.346;18.562;2024-01-06T09:15:54;3.80;;;2.20;;
57023;SDS011;42916;54.346;18.562;2024-01-06T09:18:21;4.10;;;1.80;;
57023;SDS011;42916;54.346;18.562;2024-01-06T09:20:47;4.40;;;1.90;;
57023;SDS011;42916;54.346;18.562;2024-01-06T09:23:15;3.90;;;2.10;;
57023;SDS011;42916;54.346;18.562;2024-01-06T09:25:43;4.10;;;2.10;;
57023;SDS011;42916;54.346;18.562;2024-01-06T09:28:09;5.60;;;2.50;;
57023;SDS011;42916;54.346;18.562;2024-01-06T09:30:40;5.00;;;2.90;;
57023;SDS011;42916;54.346;18.562;2024-01-06T09:33:08;7.50;;;4.40;;
57023;SDS011;42916;54.346;18.562;2024-01-06T09:35:35;7.20;;;3.70;;
57023;SDS011;42916;54.346;18.562;2024-01-06T09:38:02;8.30;;;3.70;;
57023;SDS011;42916;54.346;18.562;2024-01-06T09:40:28;11.30;;;4.30;;
57023;SDS011;42916;54.346;18.562;2024-01-06T09:45:24;6.10;;;2.60;;
57023;SDS011;42916;54.346;18.562;2024-01-06T09:47:52;8.40;;;2.70;;
57023;SDS011;42916;54.346;18.562;2024-01-06T09:50:21;3.70;;;2.70;;
57023;SDS011;42916;54.346;18.562;2024-01-06T09:52:48;2.90;;;2.00;;
57023;SDS011;42916;54.346;18.562;2024-01-06T09:55:24;3.10;;;1.70;;
57023;SDS011;42916;54.346;18.562;2024-01-06T09:57:53;1.70;;;1.00;;
57023;SDS011;42916;54.346;18.562;2024-01-06T10:00:20;2.20;;;1.30;;
57023;SDS011;42916;54.346;18.562;2024-01-06T10:02:48;4.50;;;2.10;;
57023;SDS011;42916;54.346;18.562;2024-01-06T10:05:15;5.30;;;2.00;;
57023;SDS011;42916;54.346;18.562;2024-01-06T10:07:44;4.20;;;1.80;;
57023;SDS011;42916;54.346;18.562;2024-01-06T10:10:12;2.90;;;1.80;;
57023;SDS011;42916;54.346;18.562;2024-01-06T10:12:41;4.50;;;1.80;;
57023;SDS011;42916;54.346;18.562;2024-01-06T10:15:09;9.30;;;2.70;;
57023;SDS011;42916;54.346;18.562;2024-01-06T10:17:40;3.30;;;1.60;;
57023;SDS011;42916;54.346;18.562;2024-01-06T10:20:11;6.60;;;2.40;;
57023;SDS011;42916;54.346;18.562;2024-01-06T10:22:42;3.30;;;1.70;;
57023;SDS011;42916;54.346;18.562;2024-01-06T10:25:09;6.20;;;2.20;;
57023;SDS011;42916;54.346;18.562;2024-01-06T10:27:37;5.60;;;2.10;;
57023;SDS011;42916;54.346;18.562;2024-01-06T10:30:08;5.90;;;2.80;;
57023;SDS011;42916;54.346;18.562;2024-01-06T10:32:36;10.00;;;3.60;;
57023;SDS011;42916;54.346;18.562;2024-01-06T10:35:04;7.90;;;2.70;;
57023;SDS011;42916;54.346;18.562;2024-01-06T10:37:33;6.70;;;2.40;;
57023;SDS011;42916;54.346;18.562;2024-01-06T10:40:09;4.10;;;1.70;;
57023;SDS011;42916;54.346;18.562;2024-01-06T10:42:38;3.50;;;2.00;;
57023;SDS011;42916;54.346;18.562;2024-01-06T10:45:06;2.10;;;1.50;;
57023;SDS011;42916;54.346;18.562;2024-01-06T10:47:36;4.30;;;1.40;;
57023;SDS011;42916;54.346;18.562;2024-01-06T10:50:04;4.30;;;1.70;;
57023;SDS011;42916;54.346;18.562;2024-01-06T10:52:31;4.00;;;1.40;;
57023;SDS011;42916;54.346;18.562;2024-01-06T10:54:58;3.10;;;1.60;;
57023;SDS011;42916;54.346;18.562;2024-01-06T10:57:27;5.10;;;2.00;;
57023;SDS011;42916;54.346;18.562;2024-01-06T11:00:00;6.80;;;2.80;;
57023;SDS011;42916;54.346;18.562;2024-01-06T11:02:27;6.10;;;2.10;;
57023;SDS011;42916;54.346;18.562;2024-01-06T11:04:54;6.40;;;2.30;;
57023;SDS011;42916;54.346;18.562;2024-01-06T11:07:22;3.40;;;1.20;;
57023;SDS011;42916;54.346;18.562;2024-01-06T11:09:58;3.30;;;1.50;;
57023;SDS011;42916;54.346;18.562;2024-01-06T11:12:31;4.50;;;1.50;;
57023;SDS011;42916;54.346;18.562;2024-01-06T11:14:59;8.30;;;2.40;;
57023;SDS011;42916;54.346;18.562;2024-01-06T11:20:22;3.80;;;1.60;;
57023;SDS011;42916;54.346;18.562;2024-01-06T11:22:50;3.80;;;1.90;;
57023;SDS011;42916;54.346;18.562;2024-01-06T11:25:21;4.40;;;2.10;;
57023;SDS011;42916;54.346;18.562;2024-01-06T11:27:48;4.60;;;2.40;;
57023;SDS011;42916;54.346;18.562;2024-01-06T11:30:20;7.90;;;3.10;;
57023;SDS011;42916;54.346;18.562;2024-01-06T11:32:52;5.90;;;2.40;;
57023;SDS011;42916;54.346;18.562;2024-01-06T11:35:25;6.80;;;3.00;;
57023;SDS011;42916;54.346;18.562;2024-01-06T11:37:54;6.20;;;2.30;;
57023;SDS011;42916;54.346;18.562;2024-01-06T11:40:24;6.40;;;2.00;;
57023;SDS011;42916;54.346;18.562;2024-01-06T11:45:36;7.10;;;2.20;;
57023;SDS011;42916;54.346;18.562;2024-01-06T11:48:05;7.30;;;2.10;;
57023;SDS011;42916;54.346;18.562;2024-01-06T11:50:34;7.30;;;2.50;;
57023;SDS011;42916;54.346;18.562;2024-01-06T11:53:02;6.40;;;2.00;;
57023;SDS011;42916;54.346;18.562;2024-01-06T11:55:30;2.90;;;1.20;;
57023;SDS011;42916;54.346;18.562;2024-01-06T11:58:01;6.10;;;1.80;;
57023;SDS011;42916;54.346;18.562;2024-01-06T12:00:29;5.30;;;1.80;;
57023;SDS011;42916;54.346;18.562;2024-01-06T12:02:57;9.10;;;2.30;;
57023;SDS011;42916;54.346;18.562;2024-01-06T12:05:24;4.60;;;1.50;;
57023;SDS011;42916;54.346;18.562;2024-01-06T12:07:56;9.90;;;2.20;;
57023;SDS011;42916;54.346;18.562;2024-01-06T12:10:28;4.60;;;1.90;;
57023;SDS011;42916;54.346;18.562;2024-01-06T12:15:28;3.80;;;1.40;;
57023;SDS011;42916;54.346;18.562;2024-01-06T12:17:56;6.20;;;1.90;;
57023;SDS011;42916;54.346;18.562;2024-01-06T12:20:24;3.50;;;1.50;;
57023;SDS011;42916;54.346;18.562;2024-01-06T12:22:53;5.30;;;2.00;;
57023;SDS011;42916;54.346;18.562;2024-01-06T12:25:21;5.20;;;2.30;;
57023;SDS011;42916;54.346;18.562;2024-01-06T12:27:49;3.70;;;1.50;;
57023;SDS011;42916;54.346;18.562;2024-01-06T12:30:18;2.80;;;1.60;;
57023;SDS011;42916;54.346;18.562;2024-01-06T12:32:48;4.90;;;2.20;;
57023;SDS011;42916;54.346;18.562;2024-01-06T12:35:16;5.10;;;2.00;;
57023;SDS011;42916;54.346;18.562;2024-01-06T12:37:44;5.40;;;2.00;;
57023;SDS011;42916;54.346;18.562;2024-01-06T12:40:14;2.90;;;1.60;;
57023;SDS011;42916;54.346;18.562;2024-01-06T12:45:10;2.00;;;1.40;;
57023;SDS011;42916;54.346;18.562;2024-01-06T12:47:37;4.70;;;1.90;;
57023;SDS011;42916;54.346;18.562;2024-01-06T12:50:04;6.30;;;1.60;;
57023;SDS011;42916;54.346;18.562;2024-01-06T12:52:32;4.30;;;2.00;;
57023;SDS011;42916;54.346;18.562;2024-01-06T12:55:00;5.70;;;2.70;;
57023;SDS011;42916;54.346;18.562;2024-01-06T12:57:29;4.60;;;1.70;;
57023;SDS011;42916;54.346;18.562;2024-01-06T12:59:56;4.80;;;2.00;;
57023;SDS011;42916;54.346;18.562;2024-01-06T13:02:23;2.60;;;1.60;;
57023;SDS011;42916;54.346;18.562;2024-01-06T13:04:50;2.30;;;1.50;;
57023;SDS011;42916;54.346;18.562;2024-01-06T13:07:16;2.90;;;1.20;;
57023;SDS011;42916;54.346;18.562;2024-01-06T13:09:43;4.40;;;1.40;;
57023;SDS011;42916;54.346;18.562;2024-01-06T13:12:10;3.90;;;1.80;;
57023;SDS011;42916;54.346;18.562;2024-01-06T13:14:37;3.10;;;1.70;;
57023;SDS011;42916;54.346;18.562;2024-01-06T13:17:04;3.20;;;1.60;;
57023;SDS011;42916;54.346;18.562;2024-01-06T13:19:32;2.70;;;1.40;;
57023;SDS011;42916;54.346;18.562;2024-01-06T13:22:00;3.30;;;2.00;;
57023;SDS011;42916;54.346;18.562;2024-01-06T13:24:27;2.80;;;1.50;;
57023;SDS011;42916;54.346;18.562;2024-01-06T13:26:53;3.10;;;1.20;;
57023;SDS011;42916;54.346;18.562;2024-01-06T13:29:20;3.50;;;1.10;;
57023;SDS011;42916;54.346;18.562;2024-01-06T13:31:47;6.20;;;1.70;;
57023;SDS011;42916;54.346;18.562;2024-01-06T13:34:13;4.40;;;2.20;;
57023;SDS011;42916;54.346;18.562;2024-01-06T13:36:40;4.60;;;1.90;;
57023;SDS011;42916;54.346;18.562;2024-01-06T13:39:07;3.80;;;1.40;;
57023;SDS011;42916;54.346;18.562;2024-01-06T13:41:34;4.00;;;1.90;;
57023;SDS011;42916;54.346;18.562;2024-01-06T13:44:02;3.50;;;1.60;;
57023;SDS011;42916;54.346;18.562;2024-01-06T13:46:29;3.20;;;2.10;;
57023;SDS011;42916;54.346;18.562;2024-01-06T13:48:55;3.60;;;1.70;;
57023;SDS011;42916;54.346;18.562;2024-01-06T13:51:23;2.60;;;1.60;;
57023;SDS011;42916;54.346;18.562;2024-01-06T13:53:50;4.30;;;1.50;;
57023;SDS011;42916;54.346;18.562;2024-01-06T13:56:16;3.00;;;1.60;;
57023;SDS011;42916;54.346;18.562;2024-01-06T13:58:44;1.70;;;1.10;;
57023;SDS011;42916;54.346;18.562;2024-01-06T14:01:10;5.10;;;1.40;;
57023;SDS011;42916;54.346;18.562;2024-01-06T14:03:37;1.90;;;1.20;;
57023;SDS011;42916;54.346;18.562;2024-01-06T14:06:04;5.20;;;1.70;;
57023;SDS011;42916;54.346;18.562;2024-01-06T14:08:32;8.10;;;2.00;;
57023;SDS011;42916;54.346;18.562;2024-01-06T14:10:59;4.80;;;2.00;;
57023;SDS011;42916;54.346;18.562;2024-01-06T14:13:26;4.60;;;2.20;;
57023;SDS011;42916;54.346;18.562;2024-01-06T14:15:52;5.50;;;2.80;;
57023;SDS011;42916;54.346;18.562;2024-01-06T14:18:19;6.40;;;2.20;;
57023;SDS011;42916;54.346;18.562;2024-01-06T14:20:46;5.70;;;1.80;;
57023;SDS011;42916;54.346;18.562;2024-01-06T14:23:17;2.40;;;1.50;;
57023;SDS011;42916;54.346;18.562;2024-01-06T14:25:43;3.10;;;1.70;;
57023;SDS011;42916;54.346;18.562;2024-01-06T14:28:10;3.30;;;1.40;;
57023;SDS011;42916;54.346;18.562;2024-01-06T14:30:38;2.80;;;1.50;;
57023;SDS011;42916;54.346;18.562;2024-01-06T14:33:04;4.60;;;2.00;;
57023;SDS011;42916;54.346;18.562;2024-01-06T14:35:31;2.90;;;1.80;;
57023;SDS011;42916;54.346;18.562;2024-01-06T14:37:59;2.20;;;1.30;;
57023;SDS011;42916;54.346;18.562;2024-01-06T14:40:26;3.30;;;1.50;;
57023;SDS011;42916;54.346;18.562;2024-01-06T14:42:52;3.00;;;1.60;;